Time;durP1;ratioP1;P1;durP2;ratioP2;P2;SDS_P1;SDS_P2;PMS_P1;PMS_P2;Temp;Humidity;BMP_temperature;BMP_pressure;BME280_temperature;BME280_humidity;BME280_pressure;Samples;Min_cycle;Max_cycle;Signal;HPM_P1;HPM_P2
2022/09/09 00:01:27;;;;;;;26.70;16.07;;;14.50;99.90;;;;;;5215270;28;20466;-48
2022/09/09 00:04:12;;;;;;;26.13;16.00;;;14.50;99.90;;;;;;5215858;28;20536;-48
2022/09/09 00:07:11;;;;;;;13.00;11.03;;;14.50;99.90;;;;;;5227395;28;20476;-48
2022/09/09 00:09:49;;;;;;;18.97;13.80;;;14.50;99.90;;;;;;5214121;28;20543;-46
2022/09/09 00:12:32;;;;;;;25.00;14.87;;;14.50;99.90;;;;;;5226030;28;20416;-48
2022/09/09 00:15:12;;;;;;;27.07;16.80;;;14.50;99.90;;;;;;5220153;28;20433;-49
2022/09/09 00:17:49;;;;;;;21.07;15.40;;;14.50;99.90;;;;;;5236494;28;20432;-48
2022/09/09 00:20:41;;;;;;;23.40;16.57;;;14.40;99.90;;;;;;5217489;28;20502;-48
2022/09/09 00:23:27;;;;;;;22.90;16.37;;;14.40;99.90;;;;;;5220872;28;20857;-47
2022/09/09 00:26:04;;;;;;;17.80;13.10;;;14.40;99.90;;;;;;5220616;28;20861;-46
2022/09/09 00:28:48;;;;;;;21.30;13.93;;;14.40;99.90;;;;;;5221373;28;20426;-50
2022/09/09 00:31:26;;;;;;;19.80;12.97;;;14.40;99.90;;;;;;5223406;28;20560;-47
2022/09/09 00:34:19;;;;;;;22.80;14.77;;;14.40;99.90;;;;;;5224692;28;20561;-50
2022/09/09 00:36:53;;;;;;;18.53;11.57;;;14.50;99.90;;;;;;5190027;28;20438;-47
2022/09/09 00:39:37;;;;;;;16.63;12.87;;;14.50;99.90;;;;;;5208461;28;20518;-49
2022/09/09 00:42:30;;;;;;;12.07;10.67;;;14.40;99.90;;;;;;5220705;28;20528;-46
2022/09/09 00:45:35;;;;;;;18.63;13.20;;;14.30;99.90;;;;;;5215350;28;20557;-47
2022/09/09 00:48:11;;;;;;;26.10;15.37;;;14.30;99.90;;;;;;5221153;28;20523;-46
2022/09/09 00:50:55;;;;;;;19.60;14.73;;;14.30;99.90;;;;;;5226935;28;20972;-48
2022/09/09 00:53:56;;;;;;;19.63;14.93;;;14.40;99.90;;;;;;5221795;28;20439;-47
2022/09/09 00:56:37;;;;;;;26.17;16.37;;;14.30;99.90;;;;;;5234742;28;20438;-50
2022/09/09 00:59:10;;;;;;;16.37;13.63;;;14.20;99.90;;;;;;5222013;28;20433;-47
2022/09/09 01:01:41;;;;;;;24.13;15.73;;;14.30;99.90;;;;;;5220063;28;20551;-47
2022/09/09 01:04:20;;;;;;;15.60;13.83;;;14.30;99.90;;;;;;5222188;28;20435;-47
2022/09/09 01:06:57;;;;;;;25.43;17.40;;;14.40;99.90;;;;;;5228347;28;20201;-46
2022/09/09 01:09:34;;;;;;;36.90;19.80;;;14.50;99.90;;;;;;5215420;28;20951;-46
2022/09/09 01:12:11;;;;;;;28.10;17.43;;;14.40;99.90;;;;;;5225268;28;20433;-47
2022/09/09 01:14:48;;;;;;;42.43;21.67;;;14.30;99.90;;;;;;5221016;28;20433;-47
2022/09/09 01:17:30;;;;;;;19.93;16.13;;;14.20;99.90;;;;;;5216714;28;20436;-49
2022/09/09 01:20:17;;;;;;;21.20;15.83;;;14.20;99.90;;;;;;5210176;28;21061;-46
2022/09/09 01:23:19;;;;;;;33.70;20.20;;;14.20;99.90;;;;;;5210539;28;20441;-47
2022/09/09 01:26:15;;;;;;;39.33;21.60;;;14.20;99.90;;;;;;5227466;28;20489;-48
2022/09/09 01:28:49;;;;;;;42.77;23.20;;;14.10;99.90;;;;;;5221450;28;20441;-51
2022/09/09 01:31:45;;;;;;;41.67;21.33;;;14.10;99.90;;;;;;5220917;28;20462;-50
2022/09/09 01:34:15;;;;;;;55.33;24.13;;;14.10;99.90;;;;;;5207366;28;20515;-50
2022/09/09 01:37:11;;;;;;;26.93;17.30;;;14.10;99.90;;;;;;5217238;28;20520;-49
2022/09/09 01:39:44;;;;;;;19.30;15.07;;;14.10;99.90;;;;;;5222013;28;20213;-49
2022/09/09 01:42:16;;;;;;;44.57;23.77;;;14.10;99.90;;;;;;5213053;28;20432;-49
2022/09/09 01:44:46;;;;;;;25.47;18.20;;;14.00;99.90;;;;;;5217711;28;20919;-49
2022/09/09 01:47:17;;;;;;;25.93;17.23;;;14.00;99.90;;;;;;5218228;28;20605;-48
2022/09/09 01:49:48;;;;;;;29.60;17.47;;;14.00;99.90;;;;;;5219233;28;20199;-48
2022/09/09 01:52:18;;;;;;;19.90;13.80;;;14.00;99.90;;;;;;5219613;28;20207;-48
2022/09/09 01:54:49;;;;;;;34.13;18.40;;;14.00;99.90;;;;;;5230674;28;20175;-50
2022/09/09 01:57:43;;;;;;;21.20;13.47;;;13.90;99.90;;;;;;5215971;28;20282;-50
2022/09/09 02:00:14;;;;;;;36.17;18.33;;;14.00;99.90;;;;;;5222711;28;20298;-50
2022/09/09 02:03:01;;;;;;;21.83;15.10;;;13.90;99.90;;;;;;5219643;28;20432;-50
2022/09/09 02:06:01;;;;;;;33.60;20.67;;;13.90;99.90;;;;;;5211084;28;20861;-50
2022/09/09 02:08:43;;;;;;;34.97;19.17;;;13.90;99.90;;;;;;5212554;28;20449;-49
2022/09/09 02:11:19;;;;;;;15.07;12.70;;;13.80;99.90;;;;;;5223197;28;20468;-51
2022/09/09 02:13:54;;;;;;;52.37;22.60;;;13.90;99.90;;;;;;5217060;28;20521;-49
2022/09/09 02:16:37;;;;;;;45.07;22.17;;;13.80;99.90;;;;;;5225169;28;20906;-51
2022/09/09 02:19:25;;;;;;;26.60;17.60;;;13.80;99.90;;;;;;5228702;28;21010;-51
2022/09/09 02:21:59;;;;;;;28.57;17.20;;;13.80;99.90;;;;;;5230244;28;20443;-50
2022/09/09 02:24:33;;;;;;;42.13;21.17;;;13.80;99.90;;;;;;5212689;28;20945;-55
2022/09/09 02:27:08;;;;;;;18.73;12.97;;;13.80;99.90;;;;;;5228012;28;20475;-51
2022/09/09 02:29:41;;;;;;;31.83;19.00;;;13.90;99.90;;;;;;5207268;28;20920;-50
2022/09/09 02:32:17;;;;;;;33.17;17.37;;;13.80;99.90;;;;;;5224302;28;20439;-49
2022/09/09 02:34:51;;;;;;;27.17;16.17;;;13.80;99.90;;;;;;5220903;28;20442;-49
2022/09/09 02:37:28;;;;;;;31.10;17.73;;;13.80;99.90;;;;;;5217065;28;20476;-50
2022/09/09 02:39:59;;;;;;;33.37;18.90;;;13.90;99.90;;;;;;5221194;28;20453;-49
2022/09/09 02:42:29;;;;;;;15.23;12.97;;;13.80;99.90;;;;;;5211429;28;20434;-49
2022/09/09 02:45:00;;;;;;;26.37;16.10;;;13.70;99.90;;;;;;5220619;28;20512;-50
2022/09/09 02:47:50;;;;;;;35.97;17.30;;;13.70;99.90;;;;;;5215447;28;20257;-51
2022/09/09 02:50:33;;;;;;;33.10;16.50;;;13.80;99.90;;;;;;5217847;28;20207;-49
2022/09/09 02:53:22;;;;;;;31.87;17.50;;;13.80;99.90;;;;;;5226611;28;20669;-49
2022/09/09 02:55:56;;;;;;;37.83;19.53;;;13.80;99.90;;;;;;5221506;28;20450;-51
2022/09/09 02:58:27;;;;;;;28.77;15.40;;;13.70;99.90;;;;;;5218313;28;20471;-49
2022/09/09 03:00:58;;;;;;;23.33;15.33;;;13.60;99.90;;;;;;5223066;28;20497;-48
2022/09/09 03:03:30;;;;;;;38.83;22.20;;;13.60;99.90;;;;;;5227245;28;20425;-50
2022/09/09 03:06:00;;;;;;;30.43;17.23;;;13.50;99.90;;;;;;5227119;28;20463;-50
2022/09/09 03:08:31;;;;;;;39.40;20.80;;;13.50;99.90;;;;;;5219218;28;20789;-49
2022/09/09 03:11:03;;;;;;;44.60;21.20;;;13.50;99.90;;;;;;5232535;28;20568;-49
2022/09/09 03:13:37;;;;;;;36.20;18.90;;;13.50;99.90;;;;;;5234188;28;20181;-49
2022/09/09 03:16:08;;;;;;;25.30;14.53;;;13.50;99.90;;;;;;5220958;28;20796;-50
2022/09/09 03:18:38;;;;;;;45.63;21.00;;;13.40;99.90;;;;;;5229256;28;20529;-48
2022/09/09 03:21:09;;;;;;;51.83;23.40;;;13.40;99.90;;;;;;5228889;28;20235;-50
2022/09/09 03:23:40;;;;;;;45.87;23.20;;;13.40;99.90;;;;;;5227633;28;20232;-48
2022/09/09 03:26:10;;;;;;;27.50;17.80;;;13.30;99.90;;;;;;5231400;28;20237;-50
2022/09/09 03:28:42;;;;;;;31.27;16.70;;;13.40;99.90;;;;;;5220492;28;20206;-49
2022/09/09 03:31:12;;;;;;;41.77;21.87;;;13.30;99.90;;;;;;5218919;28;20195;-49
2022/09/09 03:33:43;;;;;;;45.00;19.90;;;13.40;99.90;;;;;;5241341;28;20436;-50
2022/09/09 03:36:14;;;;;;;36.97;19.67;;;13.30;99.90;;;;;;5227188;28;20530;-50
2022/09/09 03:38:45;;;;;;;37.10;20.43;;;13.40;99.90;;;;;;5224663;28;20178;-50
2022/09/09 03:41:15;;;;;;;23.60;16.60;;;13.40;99.90;;;;;;5221704;28;20534;-49
2022/09/09 03:43:46;;;;;;;37.70;20.00;;;13.30;99.90;;;;;;5217465;28;20187;-50
2022/09/09 03:46:18;;;;;;;26.43;16.13;;;13.40;99.90;;;;;;5222674;28;20211;-49
2022/09/09 03:48:48;;;;;;;25.90;14.53;;;13.30;99.90;;;;;;5199488;28;20175;-51
2022/09/09 03:51:19;;;;;;;17.60;12.60;;;13.30;99.90;;;;;;5218615;28;20546;-49
2022/09/09 03:53:50;;;;;;;18.53;13.37;;;13.30;99.90;;;;;;5226894;28;20187;-50
2022/09/09 03:56:21;;;;;;;33.27;19.17;;;13.30;99.90;;;;;;5219288;28;20191;-50
2022/09/09 03:58:52;;;;;;;14.70;10.77;;;13.30;99.90;;;;;;5229131;28;20273;-50
2022/09/09 04:01:22;;;;;;;28.10;14.63;;;13.40;99.90;;;;;;5219313;28;20600;-48
2022/09/09 04:03:54;;;;;;;21.07;13.17;;;13.40;99.90;;;;;;5229229;28;20188;-49
2022/09/09 04:06:25;;;;;;;16.07;12.57;;;13.30;99.90;;;;;;5222013;28;20238;-48
2022/09/09 04:08:56;;;;;;;29.33;15.53;;;13.30;99.90;;;;;;5219187;28;20528;-50
2022/09/09 04:11:26;;;;;;;20.60;12.87;;;13.30;99.90;;;;;;5215339;28;20540;-47
2022/09/09 04:13:57;;;;;;;15.77;11.37;;;13.20;99.90;;;;;;5221823;28;20175;-49
2022/09/09 04:16:28;;;;;;;14.77;10.40;;;13.20;99.90;;;;;;5226080;28;20198;-48
2022/09/09 04:18:59;;;;;;;16.80;11.20;;;13.20;99.90;;;;;;5216073;28;20650;-48
2022/09/09 04:21:31;;;;;;;24.20;14.23;;;13.20;99.90;;;;;;5213356;28;20488;-49
2022/09/09 04:24:01;;;;;;;15.63;11.40;;;13.20;99.90;;;;;;5224563;28;20528;-48
2022/09/09 04:26:33;;;;;;;15.90;12.07;;;13.20;99.90;;;;;;5223775;28;20456;-47
2022/09/09 04:29:04;;;;;;;23.63;13.17;;;13.20;99.90;;;;;;5222275;28;20189;-48
2022/09/09 04:31:35;;;;;;;24.70;14.07;;;13.10;99.90;;;;;;5218092;28;20477;-50
2022/09/09 04:34:06;;;;;;;27.50;16.03;;;13.10;99.90;;;;;;5231638;28;20433;-50
2022/09/09 04:36:36;;;;;;;24.37;16.50;;;13.10;99.90;;;;;;5218449;28;20435;-47
2022/09/09 04:39:07;;;;;;;27.03;16.40;;;13.10;99.90;;;;;;5216181;28;20197;-48
2022/09/09 04:41:38;;;;;;;42.70;19.70;;;13.20;99.90;;;;;;5202649;28;20293;-47
2022/09/09 04:44:09;;;;;;;26.33;16.40;;;13.20;99.90;;;;;;5201657;28;20531;-47
2022/09/09 04:46:41;;;;;;;18.67;11.97;;;13.20;99.90;;;;;;5213042;28;20183;-49
2022/09/09 04:49:11;;;;;;;19.83;12.33;;;13.20;99.90;;;;;;5218433;28;20433;-49
2022/09/09 04:51:42;;;;;;;29.80;14.70;;;13.30;99.90;;;;;;5220785;28;20494;-48
2022/09/09 04:54:13;;;;;;;21.13;14.30;;;13.30;99.90;;;;;;5231252;28;20179;-49
2022/09/09 04:56:44;;;;;;;26.17;15.50;;;13.30;99.90;;;;;;5223725;28;20193;-48
2022/09/09 04:59:14;;;;;;;30.97;16.70;;;13.40;99.90;;;;;;5222147;28;20233;-48
2022/09/09 05:01:45;;;;;;;27.27;16.20;;;13.40;99.90;;;;;;5169226;28;1395329;-48
2022/09/09 05:04:16;;;;;;;34.87;18.70;;;13.40;99.90;;;;;;5224233;28;20602;-49
2022/09/09 05:06:47;;;;;;;16.70;10.50;;;13.60;99.90;;;;;;5207881;28;20293;-49
2022/09/09 05:09:17;;;;;;;14.73;10.90;;;13.60;99.90;;;;;;5215403;28;20918;-48
2022/09/09 05:11:48;;;;;;;33.63;16.50;;;13.70;99.90;;;;;;5208492;28;20226;-47
2022/09/09 05:14:19;;;;;;;18.00;11.80;;;13.90;99.90;;;;;;5222416;28;20182;-48
2022/09/09 05:16:49;;;;;;;23.83;13.30;;;14.00;99.90;;;;;;5224847;28;20444;-50
2022/09/09 05:19:20;;;;;;;13.03;11.67;;;14.20;99.90;;;;;;5220817;28;20277;-47
2022/09/09 05:21:51;;;;;;;14.60;10.60;;;14.30;99.90;;;;;;5222395;28;20210;-48
2022/09/09 05:24:23;;;;;;;13.43;9.50;;;14.20;99.90;;;;;;5200630;28;20215;-49
2022/09/09 05:26:53;;;;;;;12.90;10.00;;;14.30;99.90;;;;;;5216265;28;20671;-54
2022/09/09 05:29:24;;;;;;;11.13;9.00;;;14.30;99.90;;;;;;5216725;28;20436;-47
2022/09/09 05:31:54;;;;;;;13.77;9.40;;;14.30;99.90;;;;;;5212546;28;20183;-48
2022/09/09 05:34:25;;;;;;;12.87;8.87;;;14.40;99.90;;;;;;5208671;28;20270;-50
2022/09/09 05:36:56;;;;;;;13.53;10.00;;;14.50;99.90;;;;;;5216233;28;20611;-49
2022/09/09 05:39:26;;;;;;;12.00;8.47;;;14.50;99.90;;;;;;5209193;28;20563;-49
2022/09/09 05:41:57;;;;;;;12.07;9.40;;;14.60;99.90;;;;;;5216361;28;20589;-51
2022/09/09 05:44:27;;;;;;;9.90;7.83;;;14.60;99.90;;;;;;5212362;28;20639;-50
2022/09/09 05:46:58;;;;;;;16.00;9.40;;;14.60;99.90;;;;;;5220580;28;20207;-47
2022/09/09 05:49:28;;;;;;;22.93;11.00;;;14.70;99.90;;;;;;5216707;28;20191;-49
2022/09/09 05:51:59;;;;;;;18.03;13.30;;;14.70;99.90;;;;;;5218052;28;20179;-50
2022/09/09 05:54:30;;;;;;;29.57;14.90;;;14.70;99.90;;;;;;5212698;28;20187;-50
2022/09/09 05:57:00;;;;;;;564.07;202.13;;;14.90;99.90;;;;;;5217476;28;20182;-49
2022/09/09 05:59:32;;;;;;;35.57;24.00;;;16.80;99.90;;;;;;5207471;28;20177;-50
2022/09/09 06:02:02;;;;;;;24.40;16.67;;;18.20;99.90;;;;;;5212850;28;20619;-51
2022/09/09 06:04:33;;;;;;;19.60;10.40;;;19.30;99.90;;;;;;5214652;28;20442;-50
2022/09/09 06:07:05;;;;;;;16.63;8.43;;;20.70;99.90;;;;;;5216477;28;20285;-49
2022/09/09 06:09:35;;;;;;;6.70;4.40;;;22.10;99.90;;;;;;5212092;28;20643;-49
2022/09/09 06:12:06;;;;;;;4.33;3.90;;;23.70;99.90;;;;;;5213461;28;20444;-49
2022/09/09 06:14:37;;;;;;;6.60;3.30;;;24.20;99.90;;;;;;5212085;28;20198;-49
2022/09/09 06:17:08;;;;;;;5.90;3.67;;;24.00;99.90;;;;;;5217392;28;20445;-49
2022/09/09 06:19:39;;;;;;;5.93;2.73;;;24.20;99.90;;;;;;5222763;28;20190;-48
2022/09/09 06:22:12;;;;;;;4.47;2.73;;;25.30;99.90;;;;;;5215383;28;20446;-50
2022/09/09 06:24:44;;;;;;;5.10;2.90;;;26.00;93.10;;;;;;5220282;28;20182;-49
2022/09/09 06:27:15;;;;;;;5.43;3.47;;;27.20;92.80;;;;;;5221321;28;20973;-49
2022/09/09 06:29:45;;;;;;;3.87;2.30;;;28.30;89.70;;;;;;5224152;28;20488;-48
2022/09/09 06:32:17;;;;;;;2.83;2.57;;;29.30;69.20;;;;;;5221998;28;20179;-49
2022/09/09 06:34:49;;;;;;;4.53;2.60;;;30.40;60.60;;;;;;5225185;28;20171;-49
2022/09/09 06:37:20;;;;;;;4.93;2.90;;;31.10;60.80;;;;;;5223027;28;20433;-50
2022/09/09 06:39:50;;;;;;;3.60;2.07;;;32.00;55.00;;;;;;5226091;28;20460;-50
2022/09/09 06:42:21;;;;;;;2.73;1.80;;;32.70;51.00;;;;;;5223613;28;20518;-49
2022/09/09 06:44:52;;;;;;;2.40;2.30;;;33.20;48.10;;;;;;5221201;28;20274;-50
2022/09/09 06:47:22;;;;;;;1.47;1.37;;;31.10;47.70;;;;;;5222119;28;20265;-49
2022/09/09 06:49:53;;;;;;;6.73;3.00;;;28.70;52.30;;;;;;5221150;28;20203;-50
2022/09/09 06:52:24;;;;;;;4.63;2.50;;;26.00;57.80;;;;;;5219831;28;20220;-49
2022/09/09 06:54:55;;;;;;;3.30;2.60;;;24.00;66.10;;;;;;5217276;28;20167;-49
2022/09/09 06:57:25;;;;;;;7.23;2.40;;;22.80;75.60;;;;;;5213446;28;20534;-49
2022/09/09 06:59:56;;;;;;;6.90;2.67;;;22.60;85.20;;;;;;5215616;28;20216;-50
2022/09/09 07:02:26;;;;;;;3.50;2.17;;;24.20;78.10;;;;;;5210612;28;20282;-49
2022/09/09 07:04:58;;;;;;;2.03;1.83;;;27.20;68.10;;;;;;5221353;28;20650;-49
2022/09/09 07:07:30;;;;;;;2.23;2.03;;;29.90;55.60;;;;;;5219015;28;21205;-50
2022/09/09 07:10:00;;;;;;;24.47;2.30;;;31.70;49.50;;;;;;5211103;28;20477;-50
2022/09/09 07:12:31;;;;;;;2.00;1.90;;;32.90;46.30;;;;;;5219053;28;20445;-50
2022/09/09 07:15:02;;;;;;;3.97;2.10;;;33.70;43.20;;;;;;5213453;28;20218;-51
2022/09/09 07:17:32;;;;;;;3.87;1.80;;;33.90;41.80;;;;;;5216939;28;20183;-50
2022/09/09 07:20:04;;;;;;;2.00;1.80;;;33.90;41.90;;;;;;5220677;28;20218;-48
2022/09/09 07:22:35;;;;;;;7.93;2.40;;;34.70;41.00;;;;;;5219885;28;20653;-49
2022/09/09 07:25:06;;;;;;;1.63;1.50;;;34.90;39.30;;;;;;5214233;28;20446;-48
2022/09/09 07:27:37;;;;;;;2.63;1.70;;;34.00;38.60;;;;;;5211320;28;20237;-49
2022/09/09 07:30:08;;;;;;;2.77;1.30;;;34.70;39.70;;;;;;5217486;28;20495;-51
2022/09/09 07:32:39;;;;;;;1.80;1.70;;;35.00;39.70;;;;;;5216128;28;20195;-49
2022/09/09 07:35:09;;;;;;;2.87;1.73;;;35.30;39.20;;;;;;5217853;28;20805;-50
2022/09/09 07:37:41;;;;;;;1.60;1.33;;;35.00;39.30;;;;;;5216919;28;20424;-50
2022/09/09 07:40:11;;;;;;;3.90;1.70;;;35.10;37.80;;;;;;5217153;28;20226;-51
2022/09/09 07:42:42;;;;;;;6.40;1.83;;;35.10;38.20;;;;;;5223856;28;20457;-50
2022/09/09 07:45:12;;;;;;;4.57;1.63;;;35.10;38.20;;;;;;5218516;28;20695;-50
2022/09/09 07:47:43;;;;;;;2.77;1.93;;;34.60;37.70;;;;;;5236813;28;20670;-50
2022/09/09 07:50:14;;;;;;;2.70;1.50;;;34.60;37.70;;;;;;5217465;28;20320;-49
2022/09/09 07:52:45;;;;;;;2.97;1.60;;;34.60;37.00;;;;;;5225023;28;20174;-50
2022/09/09 07:55:16;;;;;;;1.87;1.70;;;35.20;37.30;;;;;;5220173;28;20550;-51
2022/09/09 07:57:46;;;;;;;2.10;1.80;;;35.40;36.70;;;;;;5215825;28;20187;-51
2022/09/09 08:00:19;;;;;;;1.90;1.20;;;35.50;36.60;;;;;;5224161;28;20636;-51
2022/09/09 08:02:50;;;;;;;1.60;1.50;;;35.40;36.30;;;;;;5217595;28;20663;-51
2022/09/09 08:05:22;;;;;;;4.13;1.50;;;36.00;36.40;;;;;;5215703;28;20535;-53
2022/09/09 08:07:52;;;;;;;1.53;1.20;;;36.00;36.00;;;;;;5216302;28;20206;-49
2022/09/09 08:10:23;;;;;;;1.70;1.30;;;35.70;35.80;;;;;;5221255;28;20550;-50
2022/09/09 08:12:53;;;;;;;1.80;1.30;;;35.00;37.20;;;;;;5222892;28;20191;-50
2022/09/09 08:15:24;;;;;;;3.33;1.70;;;34.80;37.70;;;;;;5221429;28;20599;-49
2022/09/09 08:17:56;;;;;;;1.70;1.13;;;33.10;40.20;;;;;;5220428;28;20220;-50
2022/09/09 08:20:27;;;;;;;1.63;1.30;;;32.00;41.70;;;;;;5223962;28;20528;-50
2022/09/09 08:22:58;;;;;;;3.07;1.43;;;31.00;44.40;;;;;;5215398;28;20856;-51
2022/09/09 08:25:29;;;;;;;1.27;1.17;;;29.90;46.80;;;;;;5226635;28;20424;-50
2022/09/09 08:27:59;;;;;;;2.83;1.23;;;28.80;47.10;;;;;;5218129;28;20465;-49
2022/09/09 08:30:30;;;;;;;4.57;1.80;;;27.30;49.70;;;;;;5211397;28;20217;-49
2022/09/09 08:33:01;;;;;;;2.33;2.13;;;26.30;52.90;;;;;;5220511;28;20615;-50
2022/09/09 08:35:32;;;;;;;2.70;1.63;;;25.70;54.70;;;;;;5224321;28;20190;-49
2022/09/09 08:38:03;;;;;;;4.23;1.43;;;25.00;56.40;;;;;;5210043;28;20228;-49
2022/09/09 08:40:42;;;;;;;1.63;1.60;;;24.50;57.80;;;;;;5226622;28;20501;-50
2022/09/09 08:43:14;;;;;;;1.93;1.83;;;23.90;59.20;;;;;;5225740;28;20266;-51
2022/09/09 08:46:13;;;;;;;1.40;1.20;;;23.50;61.60;;;;;;5220343;28;20523;-51
2022/09/09 08:49:25;;;;;;;4.77;1.97;;;23.20;63.90;;;;;;5216798;28;20912;-49
2022/09/09 08:51:57;;;;;;;1.60;1.50;;;23.00;66.90;;;;;;5219267;28;20978;-50
2022/09/09 08:54:33;;;;;;;1.80;1.67;;;22.60;70.00;;;;;;5223999;28;20425;-50
2022/09/09 08:57:16;;;;;;;4.67;1.57;;;22.50;72.30;;;;;;5217805;28;20456;-50
2022/09/09 08:59:50;;;;;;;9.83;1.77;;;22.20;75.00;;;;;;5223742;28;21024;-49
2022/09/09 09:02:37;;;;;;;4.53;1.53;;;22.00;78.80;;;;;;5224076;28;20441;-50
2022/09/09 09:05:40;;;;;;;5.13;1.60;;;21.90;80.70;;;;;;5222572;28;20512;-51
2022/09/09 09:08:23;;;;;;;5.50;1.63;;;21.80;85.50;;;;;;5211830;28;20476;-50
2022/09/09 09:10:57;;;;;;;1.33;1.27;;;21.90;86.50;;;;;;5215891;28;20441;-51
2022/09/09 09:13:40;;;;;;;1.43;1.37;;;22.10;85.90;;;;;;5225906;28;20937;-51
2022/09/09 09:16:33;;;;;;;1.60;1.50;;;22.10;89.90;;;;;;5221831;28;20867;-51
2022/09/09 09:19:08;;;;;;;3.63;2.17;;;22.50;89.20;;;;;;5219007;28;20452;-50
2022/09/09 09:21:43;;;;;;;4.10;2.47;;;22.70;86.60;;;;;;5216794;28;20488;-51
2022/09/09 09:24:25;;;;;;;4.17;1.70;;;23.10;83.80;;;;;;5218650;28;20440;-49
2022/09/09 09:26:56;;;;;;;2.00;1.50;;;23.50;83.90;;;;;;5223310;28;20512;-50
2022/09/09 09:29:27;;;;;;;2.30;1.40;;;24.10;82.70;;;;;;5221882;28;20511;-50
2022/09/09 09:32:02;;;;;;;4.03;1.80;;;24.20;73.70;;;;;;5224225;28;20245;-51
2022/09/09 09:34:32;;;;;;;1.33;1.33;;;24.30;74.60;;;;;;5214808;28;20278;-51
2022/09/09 09:37:21;;;;;;;2.87;2.60;;;24.40;75.50;;;;;;5221120;28;20528;-51
2022/09/09 09:39:52;;;;;;;2.00;1.60;;;24.50;73.90;;;;;;5237427;28;20215;-51
2022/09/09 09:42:22;;;;;;;5.10;2.87;;;24.30;72.80;;;;;;5222516;28;20507;-50
2022/09/09 09:44:53;;;;;;;4.20;1.63;;;24.30;74.00;;;;;;5218320;28;20280;-52
2022/09/09 09:47:24;;;;;;;3.73;1.43;;;24.10;74.50;;;;;;5222873;28;20651;-52
2022/09/09 09:49:58;;;;;;;1.80;1.30;;;23.80;76.30;;;;;;5221785;28;20203;-52
2022/09/09 09:52:31;;;;;;;6.10;1.60;;;23.60;77.60;;;;;;5221221;28;20269;-50
2022/09/09 09:55:06;;;;;;;0.93;0.93;;;23.50;78.20;;;;;;5223537;28;20439;-49
2022/09/09 09:57:37;;;;;;;2.20;1.50;;;23.40;78.80;;;;;;5226635;28;20440;-51
2022/09/09 10:00:20;;;;;;;2.30;1.27;;;23.30;77.60;;;;;;5228807;28;20871;-51
2022/09/09 10:02:52;;;;;;;3.77;1.77;;;23.20;79.50;;;;;;5249985;22;20543;-50
2022/09/09 10:05:28;;;;;;;1.40;1.30;;;23.10;80.30;;;;;;5237094;28;20512;-49
2022/09/09 10:08:03;;;;;;;4.23;1.60;;;23.00;80.30;;;;;;5238270;28;20843;-50
2022/09/09 10:11:00;;;;;;;1.90;1.30;;;22.70;79.70;;;;;;5251415;28;20456;-51
2022/09/09 10:14:03;;;;;;;1.53;1.43;;;22.50;81.60;;;;;;5221438;28;20890;-49
2022/09/09 10:16:52;;;;;;;1.63;1.20;;;22.40;86.80;;;;;;5219791;28;20441;-49
2022/09/09 10:19:36;;;;;;;1.53;1.43;;;22.40;84.80;;;;;;5233996;28;20952;-48
2022/09/09 10:22:30;;;;;;;7.73;1.50;;;22.40;84.60;;;;;;5223022;28;20453;-50
2022/09/09 10:25:25;;;;;;;4.20;2.23;;;22.40;85.20;;;;;;5221576;28;20492;-51
2022/09/09 10:28:41;;;;;;;4.00;1.50;;;22.60;87.30;;;;;;5227728;28;20461;-50
2022/09/09 10:31:23;;;;;;;1.70;1.60;;;22.60;86.70;;;;;;5216537;28;20535;-49
2022/09/09 10:34:11;;;;;;;3.17;2.30;;;23.00;85.80;;;;;;5227937;28;20428;-48
2022/09/09 10:36:50;;;;;;;3.40;2.43;;;23.10;86.00;;;;;;5217897;28;20575;-49
2022/09/09 10:39:40;;;;;;;6.23;3.13;;;23.10;83.80;;;;;;5232462;28;20440;-51
2022/09/09 10:42:16;;;;;;;8.90;2.40;;;23.00;85.50;;;;;;5212607;28;20453;-51
2022/09/09 10:45:25;;;;;;;10.40;1.20;;;23.00;86.20;;;;;;5225218;28;20452;-52
2022/09/09 10:48:20;;;;;;;1.60;1.50;;;22.90;85.30;;;;;;5206941;28;20461;-50
2022/09/09 10:51:10;;;;;;;2.33;2.13;;;23.10;84.70;;;;;;5223638;28;20442;-50
2022/09/09 10:53:51;;;;;;;2.23;1.73;;;23.40;83.90;;;;;;5229803;28;20441;-53
2022/09/09 10:56:23;;;;;;;7.10;1.17;;;23.40;81.30;;;;;;5211996;28;20432;-49
2022/09/09 10:59:05;;;;;;;3.80;1.60;;;23.40;82.70;;;;;;5210442;28;20516;-51
2022/09/09 11:01:47;;;;;;;3.60;1.50;;;23.20;79.60;;;;;;5219633;28;20493;-48
2022/09/09 11:04:35;;;;;;;6.67;1.90;;;23.20;82.50;;;;;;5221059;28;20437;-49
2022/09/09 11:07:13;;;;;;;3.83;2.60;;;23.50;81.10;;;;;;5221133;28;20461;-48
2022/09/09 11:09:54;;;;;;;4.97;1.90;;;23.90;80.10;;;;;;5215447;28;20438;-51
2022/09/09 11:12:28;;;;;;;1.70;1.53;;;24.00;79.10;;;;;;5219907;28;20794;-49
2022/09/09 11:15:12;;;;;;;3.90;1.50;;;24.00;77.80;;;;;;5223626;28;20437;-49
2022/09/09 11:17:49;;;;;;;1.43;1.33;;;23.90;77.40;;;;;;5222469;28;20440;-50
2022/09/09 11:20:19;;;;;;;1.10;1.00;;;23.80;78.20;;;;;;5222556;28;20445;-48
2022/09/09 11:23:20;;;;;;;3.23;1.87;;;23.70;78.80;;;;;;5240814;28;20465;-51
2022/09/09 11:25:56;;;;;;;5.70;1.13;;;23.70;76.30;;;;;;5228837;28;20732;-48
2022/09/09 11:28:45;;;;;;;2.63;1.73;;;23.60;74.70;;;;;;5230306;28;20495;-49
2022/09/09 11:31:28;;;;;;;1.57;1.37;;;23.50;77.10;;;;;;5222494;28;20518;-49
2022/09/09 11:34:14;;;;;;;0.80;0.80;;;23.50;77.40;;;;;;5220038;28;20524;-51
2022/09/09 11:37:15;;;;;;;9.43;2.17;;;23.30;76.50;;;;;;5226433;28;20469;-51
2022/09/09 11:40:09;;;;;;;1.63;1.30;;;23.20;79.80;;;;;;5216275;28;20660;-50
2022/09/09 11:42:41;;;;;;;7.83;2.47;;;23.30;79.10;;;;;;5225530;28;20515;-50
2022/09/09 11:45:20;;;;;;;1.60;1.50;;;23.40;79.50;;;;;;5217231;28;20448;-50
2022/09/09 11:47:59;;;;;;;2.10;1.50;;;23.60;79.60;;;;;;5217145;28;20465;-49
2022/09/09 11:50:36;;;;;;;3.90;1.40;;;23.60;78.80;;;;;;5218905;28;20442;-50
2022/09/09 11:53:13;;;;;;;2.10;1.07;;;23.50;79.30;;;;;;5222812;28;20978;-53
2022/09/09 11:55:44;;;;;;;2.73;1.13;;;23.30;78.20;;;;;;5220326;28;20430;-54
2022/09/09 11:58:18;;;;;;;1.37;0.97;;;23.30;77.60;;;;;;5223741;28;20816;-49
2022/09/09 12:00:49;;;;;;;1.37;1.27;;;23.40;78.40;;;;;;5222607;28;20187;-49
2022/09/09 12:03:48;;;;;;;3.37;1.80;;;23.50;76.40;;;;;;5229708;28;20477;-50
2022/09/09 12:06:31;;;;;;;1.40;1.30;;;23.50;75.30;;;;;;5233754;28;20966;-49
2022/09/09 12:09:10;;;;;;;1.50;1.40;;;23.50;74.80;;;;;;5226194;28;20452;-49
2022/09/09 12:11:41;;;;;;;3.30;1.13;;;23.30;73.90;;;;;;5222541;28;20788;-50
2022/09/09 12:14:54;;;;;;;0.90;0.90;;;23.40;73.00;;;;;;5226892;28;20532;-49
2022/09/09 12:17:27;;;;;;;2.00;1.20;;;23.40;73.30;;;;;;5229141;28;20259;-51
2022/09/09 12:20:11;;;;;;;1.10;1.03;;;23.70;74.10;;;;;;5224779;28;20445;-48
2022/09/09 12:22:56;;;;;;;3.93;1.03;;;23.80;71.10;;;;;;5231281;28;20484;-50
2022/09/09 12:25:35;;;;;;;1.17;1.13;;;23.90;70.80;;;;;;5221228;28;20797;-49
2022/09/09 12:28:09;;;;;;;4.83;1.57;;;24.10;71.40;;;;;;5231120;28;20489;-49
2022/09/09 12:30:59;;;;;;;1.60;1.20;;;24.10;69.20;;;;;;5228654;28;21020;-49
2022/09/09 12:33:43;;;;;;;2.10;1.30;;;23.90;69.80;;;;;;5231964;28;20840;-49
2022/09/09 12:36:21;;;;;;;0.97;0.97;;;23.90;69.00;;;;;;5230835;28;20440;-51
2022/09/09 12:38:52;;;;;;;0.80;0.80;;;23.80;70.00;;;;;;5223925;28;20433;-49
2022/09/09 12:41:25;;;;;;;5.93;1.47;;;23.50;70.60;;;;;;5225841;28;20926;-50
2022/09/09 12:44:07;;;;;;;2.03;1.30;;;23.40;71.90;;;;;;5227159;28;20237;-49
2022/09/09 12:46:44;;;;;;;3.03;2.43;;;23.30;72.80;;;;;;5227190;28;20554;-49
2022/09/09 12:49:34;;;;;;;2.40;1.00;;;23.50;72.70;;;;;;5228984;28;21015;-49
2022/09/09 12:52:12;;;;;;;2.83;1.90;;;23.40;70.90;;;;;;5217290;28;20456;-49
2022/09/09 12:54:46;;;;;;;0.93;0.80;;;23.60;71.10;;;;;;5235704;28;20438;-50
2022/09/09 12:57:17;;;;;;;2.63;1.07;;;23.60;70.00;;;;;;5219955;28;20434;-49
2022/09/09 12:59:48;;;;;;;2.30;1.10;;;23.70;70.00;;;;;;5234562;28;20482;-52
2022/09/09 13:02:25;;;;;;;1.70;1.60;;;23.80;69.00;;;;;;5222803;28;20214;-52
2022/09/09 13:05:13;;;;;;;1.43;0.83;;;23.90;68.00;;;;;;5217304;28;20190;-50
2022/09/09 13:07:43;;;;;;;0.83;0.70;;;23.80;68.70;;;;;;5219236;28;20503;-49
2022/09/09 13:10:22;;;;;;;1.77;1.00;;;23.70;68.20;;;;;;5225156;28;20465;-49
2022/09/09 13:12:53;;;;;;;0.50;0.50;;;23.80;67.20;;;;;;5217923;28;20207;-50
2022/09/09 13:15:26;;;;;;;1.93;1.37;;;23.70;67.70;;;;;;5224978;28;20436;-49
2022/09/09 13:18:05;;;;;;;2.70;1.50;;;23.80;69.70;;;;;;5221992;28;20191;-53
2022/09/09 13:20:37;;;;;;;2.03;1.33;;;24.00;70.20;;;;;;5218465;28;20818;-49
2022/09/09 13:23:12;;;;;;;3.63;1.47;;;24.10;68.20;;;;;;5218406;28;20448;-49
2022/09/09 13:25:56;;;;;;;1.20;1.10;;;24.10;68.40;;;;;;5223089;28;20976;-49